sensor_id;sensor_type;location;lat;lon;timestamp;pressure;altitude;pressure_sealevel;temperature;humidity
46087;BME280;31824;49.648;8.640;2023-03-12T00:02:48;100058.28;;;-1.96;100.00
46087;BME280;31824;49.648;8.640;2023-03-12T00:05:51;100062.97;;;-1.81;100.00
46087;BME280;31824;49.648;8.640;2023-03-12T00:08:53;100052.31;;;-1.90;100.00
46087;BME280;31824;49.648;8.640;2023-03-12T00:11:58;100053.91;;;-1.84;100.00
46087;BME280;31824;49.648;8.640;2023-03-12T00:15:00;100058.94;;;-1.92;100.00
46087;BME280;31824;49.648;8.640;2023-03-12T00:18:03;100061.63;;;-1.84;100.00
46087;BME280;31824;49.648;8.640;2023-03-12T00:21:05;100061.84;;;-1.70;100.00
46087;BME280;31824;49.648;8.640;2023-03-12T00:24:08;100066.72;;;-1.66;100.00
46087;BME280;31824;49.648;8.640;2023-03-12T00:27:12;100069.06;;;-1.67;100.00
46087;BME280;31824;49.648;8.640;2023-03-12T00:30:14;100068.47;;;-1.72;100.00
46087;BME280;31824;49.648;8.640;2023-03-12T00:33:17;100066.38;;;-1.75;100.00
46087;BME280;31824;49.648;8.640;2023-03-12T00:36:21;100068.63;;;-1.83;100.00
46087;BME280;31824;49.648;8.640;2023-03-12T00:39:26;100056.84;;;-1.94;100.00
46087;BME280;31824;49.648;8.640;2023-03-12T00:42:29;100068.41;;;-1.85;100.00
46087;BME280;31824;49.648;8.640;2023-03-12T00:45:32;100072.75;;;-1.78;100.00
46087;BME280;31824;49.648;8.640;2023-03-12T00:48:35;100060.03;;;-1.71;100.00
46087;BME280;31824;49.648;8.640;2023-03-12T00:51:37;100070.06;;;-1.85;100.00
46087;BME280;31824;49.648;8.640;2023-03-12T00:54:39;100057.75;;;-1.75;100.00
46087;BME280;31824;49.648;8.640;2023-03-12T00:57:43;100064.81;;;-1.80;100.00
46087;BME280;31824;49.648;8.640;2023-03-12T01:00:45;100063.81;;;-1.75;100.00
46087;BME280;31824;49.648;8.640;2023-03-12T01:03:49;100061.34;;;-1.67;100.00
46087;BME280;31824;49.648;8.640;2023-03-12T01:06:54;100056.75;;;-1.57;100.00
46087;BME280;31824;49.648;8.640;2023-03-12T01:09:56;100057.16;;;-1.54;100.00
46087;BME280;31824;49.648;8.640;2023-03-12T01:13:00;100057.97;;;-1.61;100.00
46087;BME280;31824;49.648;8.640;2023-03-12T01:16:02;100043.47;;;-1.47;100.00
46087;BME280;31824;49.648;8.640;2023-03-12T01:19:05;100046.06;;;-1.47;100.00
46087;BME280;31824;49.648;8.640;2023-03-12T01:22:07;100045.66;;;-1.38;100.00
46087;BME280;31824;49.648;8.640;2023-03-12T01:25:10;100041.84;;;-1.34;100.00
46087;BME280;31824;49.648;8.640;2023-03-12T01:28:14;100050.50;;;-1.33;100.00
46087;BME280;31824;49.648;8.640;2023-03-12T01:31:18;100058.13;;;-1.41;100.00
46087;BME280;31824;49.648;8.640;2023-03-12T01:34:20;100059.88;;;-1.47;100.00
46087;BME280;31824;49.648;8.640;2023-03-12T01:37:23;100059.28;;;-1.39;100.00
46087;BME280;31824;49.648;8.640;2023-03-12T01:40:25;100063.69;;;-1.50;100.00
46087;BME280;31824;49.648;8.640;2023-03-12T01:43:36;100055.56;;;-1.41;100.00
46087;BME280;31824;49.648;8.640;2023-03-12T01:46:39;100061.56;;;-1.34;100.00
46087;BME280;31824;49.648;8.640;2023-03-12T01:49:52;100066.72;;;-1.34;100.00
46087;BME280;31824;49.648;8.640;2023-03-12T01:52:55;100060.50;;;-1.29;100.00
46087;BME280;31824;49.648;8.640;2023-03-12T01:55:58;100037.63;;;-1.33;100.00
46087;BME280;31824;49.648;8.640;2023-03-12T01:59:07;100039.59;;;-1.38;100.00
46087;BME280;31824;49.648;8.640;2023-03-12T02:02:11;100034.44;;;-1.38;100.00
46087;BME280;31824;49.648;8.640;2023-03-12T02:05:18;100035.25;;;-1.45;100.00
46087;BME280;31824;49.648;8.640;2023-03-12T02:08:22;100031.31;;;-1.48;100.00
46087;BME280;31824;49.648;8.640;2023-03-12T02:11:25;100033.81;;;-1.43;100.00
46087;BME280;31824;49.648;8.640;2023-03-12T02:14:28;100020.63;;;-1.39;100.00
46087;BME280;31824;49.648;8.640;2023-03-12T02:17:30;100018.25;;;-1.37;100.00
46087;BME280;31824;49.648;8.640;2023-03-12T02:20:41;100018.06;;;-1.39;100.00
46087;BME280;31824;49.648;8.640;2023-03-12T02:23:51;100018.06;;;-1.26;100.00
46087;BME280;31824;49.648;8.640;2023-03-12T02:26:57;100019.59;;;-1.21;100.00
46087;BME280;31824;49.648;8.640;2023-03-12T02:30:00;100012.38;;;-1.23;100.00
46087;BME280;31824;49.648;8.640;2023-03-12T02:33:06;100016.00;;;-1.15;100.00
46087;BME280;31824;49.648;8.640;2023-03-12T02:36:08;100011.16;;;-1.20;100.00
46087;BME280;31824;49.648;8.640;2023-03-12T02:39:12;100014.63;;;-1.06;100.00
46087;BME280;31824;49.648;8.640;2023-03-12T02:42:15;100004.94;;;-1.14;100.00
46087;BME280;31824;49.648;8.640;2023-03-12T02:45:19;100005.91;;;-1.14;100.00
46087;BME280;31824;49.648;8.640;2023-03-12T02:48:23;100008.44;;;-1.01;100.00
46087;BME280;31824;49.648;8.640;2023-03-12T02:51:26;99999.50;;;-0.97;100.00
46087;BME280;31824;49.648;8.640;2023-03-12T02:54:28;99994.63;;;-0.89;100.00
46087;BME280;31824;49.648;8.640;2023-03-12T02:57:32;99994.22;;;-0.92;100.00
46087;BME280;31824;49.648;8.640;2023-03-12T03:00:34;99997.84;;;-0.84;100.00
46087;BME280;31824;49.648;8.640;2023-03-12T03:03:35;100005.88;;;-0.88;100.00
46087;BME280;31824;49.648;8.640;2023-03-12T03:06:39;100001.25;;;-0.91;100.00
46087;BME280;31824;49.648;8.640;2023-03-12T03:09:42;100007.84;;;-0.80;100.00
46087;BME280;31824;49.648;8.640;2023-03-12T03:12:46;100003.06;;;-0.64;100.00
46087;BME280;31824;49.648;8.640;2023-03-12T03:15:48;99995.00;;;-0.60;100.00
46087;BME280;31824;49.648;8.640;2023-03-12T03:18:50;99989.84;;;-0.60;100.00
46087;BME280;31824;49.648;8.640;2023-03-12T03:21:51;99985.59;;;-0.59;100.00
46087;BME280;31824;49.648;8.640;2023-03-12T03:24:54;99975.88;;;-0.55;100.00
46087;BME280;31824;49.648;8.640;2023-03-12T03:27:57;99977.28;;;-0.44;100.00
46087;BME280;31824;49.648;8.640;2023-03-12T03:30:59;99974.00;;;-0.43;100.00
46087;BME280;31824;49.648;8.640;2023-03-12T03:34:10;99978.69;;;-0.33;100.00
46087;BME280;31824;49.648;8.640;2023-03-12T03:37:12;99976.22;;;-0.26;100.00
46087;BME280;31824;49.648;8.640;2023-03-12T03:40:14;99974.22;;;-0.01;100.00
46087;BME280;31824;49.648;8.640;2023-03-12T03:43:18;99968.75;;;0.03;100.00
46087;BME280;31824;49.648;8.640;2023-03-12T03:46:20;99960.47;;;0.06;100.00
46087;BME280;31824;49.648;8.640;2023-03-12T03:49:27;99961.91;;;0.04;100.00
46087;BME280;31824;49.648;8.640;2023-03-12T03:52:30;99963.91;;;0.19;100.00
46087;BME280;31824;49.648;8.640;2023-03-12T03:55:35;99973.09;;;0.17;100.00
46087;BME280;31824;49.648;8.640;2023-03-12T03:58:38;99975.53;;;0.23;100.00
46087;BME280;31824;49.648;8.640;2023-03-12T04:01:40;99980.50;;;0.21;100.00
46087;BME280;31824;49.648;8.640;2023-03-12T04:04:43;99993.91;;;0.11;100.00
46087;BME280;31824;49.648;8.640;2023-03-12T04:07:45;99998.66;;;-0.12;100.00
46087;BME280;31824;49.648;8.640;2023-03-12T04:10:48;99995.44;;;-0.17;100.00
46087;BME280;31824;49.648;8.640;2023-03-12T04:13:51;99995.03;;;-0.07;100.00
46087;BME280;31824;49.648;8.640;2023-03-12T04:16:57;99988.69;;;0.04;100.00
46087;BME280;31824;49.648;8.640;2023-03-12T04:19:59;99995.00;;;0.13;100.00
46087;BME280;31824;49.648;8.640;2023-03-12T04:23:01;99985.28;;;0.18;100.00
46087;BME280;31824;49.648;8.640;2023-03-12T04:26:03;99987.44;;;0.15;100.00
46087;BME280;31824;49.648;8.640;2023-03-12T04:29:08;99984.94;;;0.22;100.00
46087;BME280;31824;49.648;8.640;2023-03-12T04:32:12;99985.00;;;0.29;100.00
46087;BME280;31824;49.648;8.640;2023-03-12T04:35:15;99970.63;;;0.31;100.00
46087;BME280;31824;49.648;8.640;2023-03-12T04:38:17;99965.91;;;0.22;100.00
46087;BME280;31824;49.648;8.640;2023-03-12T04:41:19;99965.38;;;0.24;100.00
46087;BME280;31824;49.648;8.640;2023-03-12T04:44:27;99960.06;;;0.30;100.00
46087;BME280;31824;49.648;8.640;2023-03-12T04:47:29;99966.78;;;0.35;100.00
46087;BME280;31824;49.648;8.640;2023-03-12T04:50:31;99963.84;;;0.39;100.00
46087;BME280;31824;49.648;8.640;2023-03-12T04:53:33;99964.94;;;0.34;100.00
46087;BME280;31824;49.648;8.640;2023-03-12T04:56:36;99959.28;;;0.44;100.00
46087;BME280;31824;49.648;8.640;2023-03-12T04:59:40;99956.75;;;0.51;100.00
46087;BME280;31824;49.648;8.640;2023-03-12T05:02:42;99943.66;;;0.57;100.00
46087;BME280;31824;49.648;8.640;2023-03-12T05:05:47;99940.09;;;0.49;100.00
46087;BME280;31824;49.648;8.640;2023-03-12T05:08:50;99936.59;;;0.48;100.00
46087;BME280;31824;49.648;8.640;2023-03-12T05:11:52;99938.53;;;0.64;100.00
46087;BME280;31824;49.648;8.640;2023-03-12T05:14:57;99950.59;;;0.71;100.00
46087;BME280;31824;49.648;8.640;2023-03-12T05:18:00;99954.31;;;0.73;100.00
46087;BME280;31824;49.648;8.640;2023-03-12T05:21:06;99960.03;;;0.77;100.00
46087;BME280;31824;49.648;8.640;2023-03-12T05:24:10;99970.91;;;0.75;100.00
46087;BME280;31824;49.648;8.640;2023-03-12T05:27:13;99968.75;;;0.50;100.00
46087;BME280;31824;49.648;8.640;2023-03-12T05:30:16;99970.31;;;0.36;100.00
46087;BME280;31824;49.648;8.640;2023-03-12T05:33:19;99967.84;;;0.30;100.00
46087;BME280;31824;49.648;8.640;2023-03-12T05:36:20;99962.47;;;0.28;100.00
46087;BME280;31824;49.648;8.640;2023-03-12T05:39:24;99973.22;;;0.31;100.00
46087;BME280;31824;49.648;8.640;2023-03-12T05:42:27;99973.81;;;0.36;100.00
46087;BME280;31824;49.648;8.640;2023-03-12T05:45:32;99974.00;;;0.38;100.00
46087;BME280;31824;49.648;8.640;2023-03-12T05:48:35;99979.00;;;0.43;100.00
46087;BME280;31824;49.648;8.640;2023-03-12T05:51:39;99979.09;;;0.50;100.00
46087;BME280;31824;49.648;8.640;2023-03-12T05:54:44;99964.00;;;0.61;100.00
46087;BME280;31824;49.648;8.640;2023-03-12T05:57:46;99962.41;;;0.69;100.00
46087;BME280;31824;49.648;8.640;2023-03-12T06:00:49;99969.47;;;0.77;100.00
46087;BME280;31824;49.648;8.640;2023-03-12T06:03:51;99972.69;;;0.89;100.00
46087;BME280;31824;49.648;8.640;2023-03-12T06:06:53;99962.56;;;0.97;100.00
46087;BME280;31824;49.648;8.640;2023-03-12T06:09:56;99966.84;;;1.04;100.00
46087;BME280;31824;49.648;8.640;2023-03-12T06:12:59;99966.69;;;1.10;100.00
46087;BME280;31824;49.648;8.640;2023-03-12T06:16:04;99976.81;;;1.01;100.00
46087;BME280;31824;49.648;8.640;2023-03-12T06:19:07;99978.06;;;0.90;100.00
46087;BME280;31824;49.648;8.640;2023-03-12T06:22:09;99976.91;;;0.88;100.00
46087;BME280;31824;49.648;8.640;2023-03-12T06:25:11;99973.03;;;0.84;100.00
46087;BME280;31824;49.648;8.640;2023-03-12T06:28:14;99965.19;;;0.70;100.00
46087;BME280;31824;49.648;8.640;2023-03-12T06:31:23;99959.78;;;0.61;100.00
46087;BME280;31824;49.648;8.640;2023-03-12T06:34:25;99963.50;;;0.71;100.00
46087;BME280;31824;49.648;8.640;2023-03-12T06:37:27;99966.50;;;0.74;100.00
46087;BME280;31824;49.648;8.640;2023-03-12T06:40:29;99970.28;;;0.90;100.00
46087;BME280;31824;49.648;8.640;2023-03-12T06:43:32;99973.69;;;1.04;100.00
46087;BME280;31824;49.648;8.640;2023-03-12T06:46:36;99963.38;;;1.11;100.00
46087;BME280;31824;49.648;8.640;2023-03-12T06:49:48;99974.53;;;1.24;100.00
46087;BME280;31824;49.648;8.640;2023-03-12T06:52:50;99961.59;;;1.24;100.00
46087;BME280;31824;49.648;8.640;2023-03-12T06:55:52;99957.56;;;1.33;100.00
46087;BME280;31824;49.648;8.640;2023-03-12T06:58:54;99953.66;;;1.37;100.00
46087;BME280;31824;49.648;8.640;2023-03-12T07:01:58;99949.44;;;1.45;100.00
46087;BME280;31824;49.648;8.640;2023-03-12T07:05:00;99950.94;;;1.50;100.00
46087;BME280;31824;49.648;8.640;2023-03-12T07:08:07;99945.97;;;1.59;100.00
46087;BME280;31824;49.648;8.640;2023-03-12T07:11:12;99963.91;;;1.64;100.00
46087;BME280;31824;49.648;8.640;2023-03-12T07:14:14;99958.72;;;1.57;100.00
46087;BME280;31824;49.648;8.640;2023-03-12T07:17:17;99960.78;;;1.60;100.00
46087;BME280;31824;49.648;8.640;2023-03-12T07:20:19;99942.81;;;1.54;100.00
46087;BME280;31824;49.648;8.640;2023-03-12T07:23:21;99953.00;;;1.67;100.00
46087;BME280;31824;49.648;8.640;2023-03-12T07:26:23;99957.47;;;1.75;100.00
46087;BME280;31824;49.648;8.640;2023-03-12T07:29:25;99969.88;;;1.78;100.00
46087;BME280;31824;49.648;8.640;2023-03-12T07:32:28;99956.56;;;1.75;100.00
46087;BME280;31824;49.648;8.640;2023-03-12T07:35:30;99952.88;;;1.80;100.00
46087;BME280;31824;49.648;8.640;2023-03-12T07:38:33;99947.69;;;1.87;100.00
46087;BME280;31824;49.648;8.640;2023-03-12T07:41:35;99949.72;;;1.97;100.00
46087;BME280;31824;49.648;8.640;2023-03-12T07:44:39;99947.53;;;2.07;100.00
46087;BME280;31824;49.648;8.640;2023-03-12T07:47:43;99949.56;;;2.17;100.00
46087;BME280;31824;49.648;8.640;2023-03-12T07:50:45;99949.00;;;2.19;100.00
46087;BME280;31824;49.648;8.640;2023-03-12T07:53:47;99952.34;;;2.18;100.00
46087;BME280;31824;49.648;8.640;2023-03-12T07:56:49;99948.66;;;2.16;100.00
46087;BME280;31824;49.648;8.640;2023-03-12T07:59:51;99954.56;;;2.15;100.00
46087;BME280;31824;49.648;8.640;2023-03-12T08:02:55;99956.59;;;2.11;100.00
46087;BME280;31824;49.648;8.640;2023-03-12T08:06:01;99972.88;;;1.95;100.00
46087;BME280;31824;49.648;8.640;2023-03-12T08:09:07;99969.91;;;1.99;100.00
46087;BME280;31824;49.648;8.640;2023-03-12T08:12:09;99954.19;;;2.05;100.00
46087;BME280;31824;49.648;8.640;2023-03-12T08:15:11;99975.81;;;1.91;100.00
46087;BME280;31824;49.648;8.640;2023-03-12T08:18:14;99971.41;;;1.97;100.00
46087;BME280;31824;49.648;8.640;2023-03-12T08:21:16;99986.19;;;1.91;100.00
46087;BME280;31824;49.648;8.640;2023-03-12T08:24:20;99976.41;;;2.03;100.00
46087;BME280;31824;49.648;8.640;2023-03-12T08:27:22;99991.59;;;2.00;100.00
46087;BME280;31824;49.648;8.640;2023-03-12T08:30:24;99982.53;;;2.18;100.00
46087;BME280;31824;49.648;8.640;2023-03-12T08:33:29;99990.63;;;1.99;100.00
46087;BME280;31824;49.648;8.640;2023-03-12T08:36:31;99976.59;;;1.97;100.00
46087;BME280;31824;49.648;8.640;2023-03-12T08:39:33;99978.97;;;1.96;100.00
46087;BME280;31824;49.648;8.640;2023-03-12T08:42:35;99982.84;;;2.07;100.00
46087;BME280;31824;49.648;8.640;2023-03-12T08:45:37;99972.91;;;2.10;100.00
46087;BME280;31824;49.648;8.640;2023-03-12T08:48:40;99974.56;;;2.16;100.00
46087;BME280;31824;49.648;8.640;2023-03-12T08:51:42;99966.03;;;2.17;100.00
46087;BME280;31824;49.648;8.640;2023-03-12T08:54:44;99959.00;;;2.24;100.00
46087;BME280;31824;49.648;8.640;2023-03-12T08:57:46;99967.72;;;2.31;100.00
46087;BME280;31824;49.648;8.640;2023-03-12T09:00:48;99963.81;;;2.49;100.00
46087;BME280;31824;49.648;8.640;2023-03-12T09:03:52;99962.88;;;2.42;100.00
46087;BME280;31824;49.648;8.640;2023-03-12T09:06:55;99956.75;;;2.56;100.00
46087;BME280;31824;49.648;8.640;2023-03-12T09:09:57;99951.78;;;2.57;100.00
46087;BME280;31824;49.648;8.640;2023-03-12T09:12:59;99954.56;;;2.59;100.00
46087;BME280;31824;49.648;8.640;2023-03-12T09:16:02;99957.50;;;2.62;100.00
46087;BME280;31824;49.648;8.640;2023-03-12T09:19:05;99974.53;;;2.60;100.00
46087;BME280;31824;49.648;8.640;2023-03-12T09:22:08;99961.00;;;2.62;100.00
46087;BME280;31824;49.648;8.640;2023-03-12T09:25:10;99962.47;;;2.67;100.00
46087;BME280;31824;49.648;8.640;2023-03-12T09:28:12;99960.66;;;2.59;100.00
46087;BME280;31824;49.648;8.640;2023-03-12T09:31:17;99969.91;;;2.64;100.00
46087;BME280;31824;49.648;8.640;2023-03-12T09:34:20;99969.16;;;2.58;100.00
46087;BME280;31824;49.648;8.640;2023-03-12T09:37:22;99978.41;;;2.70;100.00
46087;BME280;31824;49.648;8.640;2023-03-12T09:40:30;99982.84;;;2.86;100.00
46087;BME280;31824;49.648;8.640;2023-03-12T09:43:37;99979.16;;;2.77;100.00
46087;BME280;31824;49.648;8.640;2023-03-12T09:46:43;99978.41;;;2.85;100.00
46087;BME280;31824;49.648;8.640;2023-03-12T09:49:54;99982.28;;;2.89;100.00
46087;BME280;31824;49.648;8.640;2023-03-12T09:53:01;99983.34;;;3.05;100.00
46087;BME280;31824;49.648;8.640;2023-03-12T09:56:04;99970.91;;;3.17;100.00
46087;BME280;31824;49.648;8.640;2023-03-12T09:59:11;99987.16;;;3.30;100.00
46087;BME280;31824;49.648;8.640;2023-03-12T10:02:30;99994.31;;;3.47;100.00
46087;BME280;31824;49.648;8.640;2023-03-12T10:05:42;99994.44;;;3.63;100.00
46087;BME280;31824;49.648;8.640;2023-03-12T10:08:57;100004.16;;;3.50;100.00
46087;BME280;31824;49.648;8.640;2023-03-12T10:12:08;100003.72;;;3.61;100.00
46087;BME280;31824;49.648;8.640;2023-03-12T10:15:23;100019.31;;;3.61;100.00
46087;BME280;31824;49.648;8.640;2023-03-12T10:18:40;100008.63;;;3.81;100.00
46087;BME280;31824;49.648;8.640;2023-03-12T10:21:56;100017.84;;;3.94;100.00
46087;BME280;31824;49.648;8.640;2023-03-12T10:25:07;100015.81;;;3.91;100.00
46087;BME280;31824;49.648;8.640;2023-03-12T10:28:22;100020.44;;;3.94;100.00
46087;BME280;31824;49.648;8.640;2023-03-12T10:31:29;100009.25;;;4.02;100.00
46087;BME280;31824;49.648;8.640;2023-03-12T10:34:37;100004.06;;;4.25;100.00
46087;BME280;31824;49.648;8.640;2023-03-12T10:37:43;100001.81;;;4.28;100.00
46087;BME280;31824;49.648;8.640;2023-03-12T10:40:47;100000.41;;;4.46;100.00
46087;BME280;31824;49.648;8.640;2023-03-12T10:43:49;100005.22;;;4.20;100.00
46087;BME280;31824;49.648;8.640;2023-03-12T10:46:58;100005.06;;;4.18;100.00
46087;BME280;31824;49.648;8.640;2023-03-12T10:50:13;99999.09;;;4.19;100.00
46087;BME280;31824;49.648;8.640;2023-03-12T10:53:22;99976.19;;;4.31;100.00
46087;BME280;31824;49.648;8.640;2023-03-12T10:56:27;99981.06;;;4.44;100.00
46087;BME280;31824;49.648;8.640;2023-03-12T10:59:32;99991.16;;;4.41;100.00
46087;BME280;31824;49.648;8.640;2023-03-12T11:02:39;99987.81;;;4.58;100.00
46087;BME280;31824;49.648;8.640;2023-03-12T11:05:46;99995.47;;;4.56;100.00
46087;BME280;31824;49.648;8.640;2023-03-12T11:09:04;99994.63;;;4.49;100.00
46087;BME280;31824;49.648;8.640;2023-03-12T11:12:24;100004.63;;;4.69;100.00
46087;BME280;31824;49.648;8.640;2023-03-12T11:15:29;100004.47;;;4.67;100.00
46087;BME280;31824;49.648;8.640;2023-03-12T11:18:37;99998.22;;;4.58;100.00
46087;BME280;31824;49.648;8.640;2023-03-12T11:21:54;99995.41;;;4.64;100.00
46087;BME280;31824;49.648;8.640;2023-03-12T11:25:02;100010.97;;;4.71;100.00
46087;BME280;31824;49.648;8.640;2023-03-12T11:28:15;100014.75;;;4.82;100.00
46087;BME280;31824;49.648;8.640;2023-03-12T11:31:23;100012.06;;;4.89;100.00
46087;BME280;31824;49.648;8.640;2023-03-12T11:34:32;100006.03;;;4.97;100.00
46087;BME280;31824;49.648;8.640;2023-03-12T11:37:46;100000.09;;;4.98;100.00
46087;BME280;31824;49.648;8.640;2023-03-12T11:41:04;100001.63;;;5.12;100.00
46087;BME280;31824;49.648;8.640;2023-03-12T11:44:25;100005.06;;;5.20;100.00
46087;BME280;31824;49.648;8.640;2023-03-12T11:47:57;100003.97;;;5.34;100.00
46087;BME280;31824;49.648;8.640;2023-03-12T11:51:09;100010.44;;;5.21;100.00
46087;BME280;31824;49.648;8.640;2023-03-12T11:54:27;100005.47;;;5.48;100.00
46087;BME280;31824;49.648;8.640;2023-03-12T11:57:35;99990.47;;;6.02;100.00
46087;BME280;31824;49.648;8.640;2023-03-12T12:00:46;99976.00;;;6.46;100.00
46087;BME280;31824;49.648;8.640;2023-03-12T12:04:11;99969.28;;;7.08;100.00
46087;BME280;31824;49.648;8.640;2023-03-12T12:07:22;99961.31;;;7.68;100.00
46087;BME280;31824;49.648;8.640;2023-03-12T12:10:35;99957.47;;;7.55;100.00
46087;BME280;31824;49.648;8.640;2023-03-12T12:13:51;99950.22;;;8.05;100.00
46087;BME280;31824;49.648;8.640;2023-03-12T12:17:05;99938.31;;;8.63;100.00
46087;BME280;31824;49.648;8.640;2023-03-12T12:20:23;99936.19;;;8.14;100.00
46087;BME280;31824;49.648;8.640;2023-03-12T12:23:38;99930.19;;;8.15;100.00
46087;BME280;31824;49.648;8.640;2023-03-12T12:26:48;99929.59;;;8.54;100.00
46087;BME280;31824;49.648;8.640;2023-03-12T12:30:09;99927.88;;;8.91;100.00
46087;BME280;31824;49.648;8.640;2023-03-12T12:33:25;99930.47;;;8.63;100.00
46087;BME280;31824;49.648;8.640;2023-03-12T12:36:33;99934.22;;;8.84;100.00
46087;BME280;31824;49.648;8.640;2023-03-12T12:39:35;99922.22;;;9.43;100.00
46087;BME280;31824;49.648;8.640;2023-03-12T12:42:51;99911.44;;;8.47;100.00
46087;BME280;31824;49.648;8.640;2023-03-12T12:45:59;99921.50;;;8.70;100.00
46087;BME280;31824;49.648;8.640;2023-03-12T12:49:07;99920.72;;;9.18;100.00
46087;BME280;31824;49.648;8.640;2023-03-12T12:52:12;99922.41;;;9.93;100.00
46087;BME280;31824;49.648;8.640;2023-03-12T12:55:19;99911.44;;;9.78;100.00
46087;BME280;31824;49.648;8.640;2023-03-12T12:58:29;99913.31;;;9.22;100.00
46087;BME280;31824;49.648;8.640;2023-03-12T13:01:35;99912.78;;;8.88;100.00
46087;BME280;31824;49.648;8.640;2023-03-12T13:04:38;99920.13;;;8.65;100.00
46087;BME280;31824;49.648;8.640;2023-03-12T13:07:46;99909.44;;;8.53;100.00
46087;BME280;31824;49.648;8.640;2023-03-12T13:10:48;99913.78;;;8.71;100.00
46087;BME280;31824;49.648;8.640;2023-03-12T13:14:35;99914.84;;;9.01;100.00
46087;BME280;31824;49.648;8.640;2023-03-12T13:18:02;99902.03;;;10.20;100.00
46087;BME280;31824;49.648;8.640;2023-03-12T13:21:18;99910.53;;;10.47;100.00
46087;BME280;31824;49.648;8.640;2023-03-12T13:24:28;99886.41;;;11.34;100.00
46087;BME280;31824;49.648;8.640;2023-03-12T13:27:37;99893.75;;;11.48;100.00
46087;BME280;31824;49.648;8.640;2023-03-12T13:30:49;99895.34;;;11.25;100.00
46087;BME280;31824;49.648;8.640;2023-03-12T13:33:56;99873.56;;;10.75;100.00
46087;BME280;31824;49.648;8.640;2023-03-12T13:37:00;99881.31;;;10.23;100.00
46087;BME280;31824;49.648;8.640;2023-03-12T13:40:34;99856.09;;;10.15;100.00
46087;BME280;31824;49.648;8.640;2023-03-12T13:43:54;99874.34;;;10.63;100.00
46087;BME280;31824;49.648;8.640;2023-03-12T13:46:58;99868.22;;;11.57;100.00
46087;BME280;31824;49.648;8.640;2023-03-12T13:50:05;99863.38;;;12.16;100.00
46087;BME280;31824;49.648;8.640;2023-03-12T13:53:15;99859.97;;;12.40;100.00
46087;BME280;31824;49.648;8.640;2023-03-12T13:56:25;99844.06;;;12.72;100.00
46087;BME280;31824;49.648;8.640;2023-03-12T13:59:29;99849.38;;;13.42;100.00
46087;BME280;31824;49.648;8.640;2023-03-12T14:02:33;99853.59;;;13.99;100.00
46087;BME280;31824;49.648;8.640;2023-03-12T14:05:47;99847.09;;;13.58;100.00
46087;BME280;31824;49.648;8.640;2023-03-12T14:09:06;99853.31;;;14.19;100.00
46087;BME280;31824;49.648;8.640;2023-03-12T14:12:15;99838.13;;;13.80;100.00
46087;BME280;31824;49.648;8.640;2023-03-12T14:15:33;99844.28;;;12.75;100.00
46087;BME280;31824;49.648;8.640;2023-03-12T14:18:43;99840.34;;;12.92;100.00
46087;BME280;31824;49.648;8.640;2023-03-12T14:21:48;99841.59;;;12.52;100.00
46087;BME280;31824;49.648;8.640;2023-03-12T14:24:51;99843.84;;;12.03;100.00
46087;BME280;31824;49.648;8.640;2023-03-12T14:27:55;99845.44;;;12.01;100.00
46087;BME280;31824;49.648;8.640;2023-03-12T14:31:00;99846.38;;;12.23;100.00
46087;BME280;31824;49.648;8.640;2023-03-12T14:34:05;99847.13;;;12.10;100.00
46087;BME280;31824;49.648;8.640;2023-03-12T14:37:14;99848.09;;;11.90;100.00
46087;BME280;31824;49.648;8.640;2023-03-12T14:40:29;99840.00;;;11.77;100.00
46087;BME280;31824;49.648;8.640;2023-03-12T14:43:36;99840.66;;;11.74;100.00
46087;BME280;31824;49.648;8.640;2023-03-12T14:46:44;99836.56;;;11.78;100.00
46087;BME280;31824;49.648;8.640;2023-03-12T14:49:47;99826.06;;;12.10;100.00
46087;BME280;31824;49.648;8.640;2023-03-12T14:52:50;99821.50;;;12.20;100.00
46087;BME280;31824;49.648;8.640;2023-03-12T14:56:02;99818.38;;;12.36;100.00
46087;BME280;31824;49.648;8.640;2023-03-12T14:59:20;99822.69;;;12.01;100.00
46087;BME280;31824;49.648;8.640;2023-03-12T15:02:23;99826.66;;;11.96;100.00
46087;BME280;31824;49.648;8.640;2023-03-12T15:05:25;99830.63;;;12.13;100.00
46087;BME280;31824;49.648;8.640;2023-03-12T15:08:31;99829.75;;;12.02;100.00
46087;BME280;31824;49.648;8.640;2023-03-12T15:11:36;99824.44;;;12.12;100.00
46087;BME280;31824;49.648;8.640;2023-03-12T15:14:39;99825.94;;;12.31;100.00
46087;BME280;31824;49.648;8.640;2023-03-12T15:17:42;99816.28;;;12.31;100.00
46087;BME280;31824;49.648;8.640;2023-03-12T15:20:45;99813.91;;;12.35;100.00
46087;BME280;31824;49.648;8.640;2023-03-12T15:23:49;99804.44;;;12.14;100.00
46087;BME280;31824;49.648;8.640;2023-03-12T15:26:52;99817.97;;;12.19;100.00
46087;BME280;31824;49.648;8.640;2023-03-12T15:29:55;99818.63;;;12.16;100.00
46087;BME280;31824;49.648;8.640;2023-03-12T15:33:05;99813.59;;;12.20;100.00
46087;BME280;31824;49.648;8.640;2023-03-12T15:36:25;99805.66;;;12.08;100.00
46087;BME280;31824;49.648;8.640;2023-03-12T15:39:30;99807.44;;;11.97;100.00
46087;BME280;31824;49.648;8.640;2023-03-12T15:42:37;99806.38;;;11.95;100.00
46087;BME280;31824;49.648;8.640;2023-03-12T15:45:40;99801.75;;;11.92;100.00
46087;BME280;31824;49.648;8.640;2023-03-12T15:48:46;99808.72;;;11.92;100.00
46087;BME280;31824;49.648;8.640;2023-03-12T15:52:03;99811.41;;;11.81;100.00
46087;BME280;31824;49.648;8.640;2023-03-12T15:55:23;99821.81;;;11.80;100.00
46087;BME280;31824;49.648;8.640;2023-03-12T15:58:29;99815.66;;;11.69;100.00
46087;BME280;31824;49.648;8.640;2023-03-12T16:01:50;99826.16;;;11.79;100.00
46087;BME280;31824;49.648;8.640;2023-03-12T16:04:55;99819.34;;;11.71;100.00
46087;BME280;31824;49.648;8.640;2023-03-12T16:08:00;99821.72;;;11.68;100.00
46087;BME280;31824;49.648;8.640;2023-03-12T16:11:03;99823.56;;;11.69;100.00
46087;BME280;31824;49.648;8.640;2023-03-12T16:14:07;99822.13;;;11.73;100.00
46087;BME280;31824;49.648;8.640;2023-03-12T16:17:21;99819.91;;;11.67;100.00